North Albemarle, North Carolina
Current Conditions -  °F | °C
As of 7:55 PM on Monday 26 Jan 2015 (Local Time) from KVUJ Reporting Station
Overcast Overcast  
Wind Chill:   Ceiling: 6000
Heat Index:   Visibility: 10mi
Dew Point:   Wind: 9mph
Humidity: 76%   Direction: 320°NW
Pressure: 29.74"   Gusts: NA
Location:  35.3503°N, 80.2174°W
Report Text: KVUJ 270055Z AUTO 32008KT 10SM BKN060 OVC110 07/03 A2974 RMK AO2 LTG DSNT E T00680029
Loading
Personal Weather Stations






























Interactive Weather Map New forecast layout! Learn more

10-Day Weather Forecast

Advertisements
Track Severe Weather on mobile